sensor_id;sensor_type;location;lat;lon;timestamp;temperature;humidity
13375;DHT22;6756;51.354;15.754;2022-08-19T00:03:13;24.70;99.90
13375;DHT22;6756;51.354;15.754;2022-08-19T00:07:14;24.70;99.90
13375;DHT22;6756;51.354;15.754;2022-08-19T00:11:15;24.60;99.90
13375;DHT22;6756;51.354;15.754;2022-08-19T00:15:18;24.50;99.90
13375;DHT22;6756;51.354;15.754;2022-08-19T00:19:19;24.50;99.90
13375;DHT22;6756;51.354;15.754;2022-08-19T00:23:20;24.40;99.90
13375;DHT22;6756;51.354;15.754;2022-08-19T00:27:20;24.30;99.90
13375;DHT22;6756;51.354;15.754;2022-08-19T00:31:22;24.30;99.90
13375;DHT22;6756;51.354;15.754;2022-08-19T00:35:23;24.20;1.00
13375;DHT22;6756;51.354;15.754;2022-08-19T00:39:23;23.90;1.00
13375;DHT22;6756;51.354;15.754;2022-08-19T00:43:26;23.80;1.00
13375;DHT22;6756;51.354;15.754;2022-08-19T00:47:27;23.60;99.90
13375;DHT22;6756;51.354;15.754;2022-08-19T00:51:30;23.40;99.90
13375;DHT22;6756;51.354;15.754;2022-08-19T00:55:33;23.20;99.90
13375;DHT22;6756;51.354;15.754;2022-08-19T00:59:35;23.00;99.90
13375;DHT22;6756;51.354;15.754;2022-08-19T01:03:37;22.90;99.90
13375;DHT22;6756;51.354;15.754;2022-08-19T01:07:39;22.70;99.90
13375;DHT22;6756;51.354;15.754;2022-08-19T01:11:43;22.70;99.90
13375;DHT22;6756;51.354;15.754;2022-08-19T01:15:50;22.70;99.90
13375;DHT22;6756;51.354;15.754;2022-08-19T01:19:52;22.60;99.90
13375;DHT22;6756;51.354;15.754;2022-08-19T01:23:53;22.60;99.90
13375;DHT22;6756;51.354;15.754;2022-08-19T01:27:54;22.60;93.70
13375;DHT22;6756;51.354;15.754;2022-08-19T01:31:56;22.70;58.90
13375;DHT22;6756;51.354;15.754;2022-08-19T01:36:09;22.70;29.70
13375;DHT22;6756;51.354;15.754;2022-08-19T01:40:11;22.70;31.10
13375;DHT22;6756;51.354;15.754;2022-08-19T01:44:12;22.60;67.40
13375;DHT22;6756;51.354;15.754;2022-08-19T01:48:14;22.50;92.40
13375;DHT22;6756;51.354;15.754;2022-08-19T01:52:14;22.40;99.90
13375;DHT22;6756;51.354;15.754;2022-08-19T01:56:16;22.30;99.90
13375;DHT22;6756;51.354;15.754;2022-08-19T02:00:19;22.20;99.90
13375;DHT22;6756;51.354;15.754;2022-08-19T02:04:20;22.20;99.90
13375;DHT22;6756;51.354;15.754;2022-08-19T02:08:21;22.20;99.90
13375;DHT22;6756;51.354;15.754;2022-08-19T02:12:22;22.10;99.90
13375;DHT22;6756;51.354;15.754;2022-08-19T02:16:24;22.10;99.90
13375;DHT22;6756;51.354;15.754;2022-08-19T02:20:25;22.10;99.90
13375;DHT22;6756;51.354;15.754;2022-08-19T02:24:26;21.90;99.90
13375;DHT22;6756;51.354;15.754;2022-08-19T02:28:27;21.80;99.90
13375;DHT22;6756;51.354;15.754;2022-08-19T02:32:28;21.70;99.90
13375;DHT22;6756;51.354;15.754;2022-08-19T02:36:31;21.60;99.90
13375;DHT22;6756;51.354;15.754;2022-08-19T02:40:32;21.70;99.90
13375;DHT22;6756;51.354;15.754;2022-08-19T02:44:34;21.60;99.90
13375;DHT22;6756;51.354;15.754;2022-08-19T02:48:35;21.70;99.90
13375;DHT22;6756;51.354;15.754;2022-08-19T02:52:36;21.60;99.90
13375;DHT22;6756;51.354;15.754;2022-08-19T02:56:39;21.60;99.90
13375;DHT22;6756;51.354;15.754;2022-08-19T03:00:52;21.40;1.00
13375;DHT22;6756;51.354;15.754;2022-08-19T03:04:53;21.30;1.00
13375;DHT22;6756;51.354;15.754;2022-08-19T03:08:54;21.10;1.00
13375;DHT22;6756;51.354;15.754;2022-08-19T03:12:55;21.10;28.80
13375;DHT22;6756;51.354;15.754;2022-08-19T03:16:56;21.00;43.50
13375;DHT22;6756;51.354;15.754;2022-08-19T03:20:58;20.90;99.90
13375;DHT22;6756;51.354;15.754;2022-08-19T03:24:58;20.80;99.90
13375;DHT22;6756;51.354;15.754;2022-08-19T03:29:04;20.80;99.90
13375;DHT22;6756;51.354;15.754;2022-08-19T03:33:09;20.70;99.90
13375;DHT22;6756;51.354;15.754;2022-08-19T03:37:12;20.60;1.00
13375;DHT22;6756;51.354;15.754;2022-08-19T03:41:15;20.60;2.20
13375;DHT22;6756;51.354;15.754;2022-08-19T03:45:16;20.60;1.00
13375;DHT22;6756;51.354;15.754;2022-08-19T03:49:18;20.50;99.90
13375;DHT22;6756;51.354;15.754;2022-08-19T03:53:19;20.30;99.90
13375;DHT22;6756;51.354;15.754;2022-08-19T03:57:20;20.10;1.00
13375;DHT22;6756;51.354;15.754;2022-08-19T04:01:23;20.00;99.90
13375;DHT22;6756;51.354;15.754;2022-08-19T04:05:28;19.90;99.90
13375;DHT22;6756;51.354;15.754;2022-08-19T04:09:34;19.90;99.90
13375;DHT22;6756;51.354;15.754;2022-08-19T04:13:37;20.00;99.90
13375;DHT22;6756;51.354;15.754;2022-08-19T04:17:38;20.00;70.70
13375;DHT22;6756;51.354;15.754;2022-08-19T04:21:47;20.00;1.00
13375;DHT22;6756;51.354;15.754;2022-08-19T04:25:48;20.20;99.90
13375;DHT22;6756;51.354;15.754;2022-08-19T04:29:48;20.50;1.00
13375;DHT22;6756;51.354;15.754;2022-08-19T04:33:49;20.50;99.90
13375;DHT22;6756;51.354;15.754;2022-08-19T04:37:51;20.50;99.90
13375;DHT22;6756;51.354;15.754;2022-08-19T04:41:52;20.50;99.90
13375;DHT22;6756;51.354;15.754;2022-08-19T04:46:12;20.60;99.90
13375;DHT22;6756;51.354;15.754;2022-08-19T04:50:13;20.60;1.00
13375;DHT22;6756;51.354;15.754;2022-08-19T04:54:14;20.60;1.00
13375;DHT22;6756;51.354;15.754;2022-08-19T04:58:15;20.70;1.00
13375;DHT22;6756;51.354;15.754;2022-08-19T05:02:16;20.90;1.00
13375;DHT22;6756;51.354;15.754;2022-08-19T05:06:19;21.00;99.90
13375;DHT22;6756;51.354;15.754;2022-08-19T05:10:20;21.10;99.90
13375;DHT22;6756;51.354;15.754;2022-08-19T05:14:21;21.20;99.90
13375;DHT22;6756;51.354;15.754;2022-08-19T05:18:23;21.40;99.90
13375;DHT22;6756;51.354;15.754;2022-08-19T05:22:44;21.50;1.00
13375;DHT22;6756;51.354;15.754;2022-08-19T05:26:49;21.70;1.00
13375;DHT22;6756;51.354;15.754;2022-08-19T05:30:50;21.80;99.90
13375;DHT22;6756;51.354;15.754;2022-08-19T05:34:51;21.80;1.00
13375;DHT22;6756;51.354;15.754;2022-08-19T05:38:52;21.90;99.90
13375;DHT22;6756;51.354;15.754;2022-08-19T05:42:53;22.00;1.00
13375;DHT22;6756;51.354;15.754;2022-08-19T05:46:54;22.10;99.90
13375;DHT22;6756;51.354;15.754;2022-08-19T05:50:55;22.20;99.90
13375;DHT22;6756;51.354;15.754;2022-08-19T05:54:55;22.20;99.90
13375;DHT22;6756;51.354;15.754;2022-08-19T05:58:57;22.30;99.90
13375;DHT22;6756;51.354;15.754;2022-08-19T06:02:58;22.40;99.90
13375;DHT22;6756;51.354;15.754;2022-08-19T06:07:03;22.50;62.60
13375;DHT22;6756;51.354;15.754;2022-08-19T06:11:23;22.70;82.50
13375;DHT22;6756;51.354;15.754;2022-08-19T06:15:24;22.80;1.00
13375;DHT22;6756;51.354;15.754;2022-08-19T06:19:27;22.90;1.00
13375;DHT22;6756;51.354;15.754;2022-08-19T06:23:30;23.10;1.00
13375;DHT22;6756;51.354;15.754;2022-08-19T06:27:31;23.30;1.00
13375;DHT22;6756;51.354;15.754;2022-08-19T06:31:34;23.50;1.00
13375;DHT22;6756;51.354;15.754;2022-08-19T06:35:40;23.70;1.00
13375;DHT22;6756;51.354;15.754;2022-08-19T06:39:43;24.00;99.90
13375;DHT22;6756;51.354;15.754;2022-08-19T06:43:44;24.30;99.90
13375;DHT22;6756;51.354;15.754;2022-08-19T06:47:45;24.50;99.90
13375;DHT22;6756;51.354;15.754;2022-08-19T06:51:48;24.70;99.90
13375;DHT22;6756;51.354;15.754;2022-08-19T06:55:48;24.60;99.90
13375;DHT22;6756;51.354;15.754;2022-08-19T06:59:55;24.90;99.90
13375;DHT22;6756;51.354;15.754;2022-08-19T07:03:56;25.20;99.90
13375;DHT22;6756;51.354;15.754;2022-08-19T07:07:57;25.20;99.90
13375;DHT22;6756;51.354;15.754;2022-08-19T07:11:58;25.40;99.90
13375;DHT22;6756;51.354;15.754;2022-08-19T07:16:03;25.30;99.90
13375;DHT22;6756;51.354;15.754;2022-08-19T07:20:06;25.60;99.90
13375;DHT22;6756;51.354;15.754;2022-08-19T07:24:08;25.70;99.90
13375;DHT22;6756;51.354;15.754;2022-08-19T07:28:10;25.70;99.90
13375;DHT22;6756;51.354;15.754;2022-08-19T07:32:10;25.80;99.90
13375;DHT22;6756;51.354;15.754;2022-08-19T07:36:13;26.00;99.90
13375;DHT22;6756;51.354;15.754;2022-08-19T07:40:17;26.20;99.90
13375;DHT22;6756;51.354;15.754;2022-08-19T07:44:19;26.30;99.90
13375;DHT22;6756;51.354;15.754;2022-08-19T07:48:21;26.40;99.90
13375;DHT22;6756;51.354;15.754;2022-08-19T07:52:25;26.70;99.90
13375;DHT22;6756;51.354;15.754;2022-08-19T07:56:27;26.90;99.90
13375;DHT22;6756;51.354;15.754;2022-08-19T08:00:27;27.00;97.80
13375;DHT22;6756;51.354;15.754;2022-08-19T08:04:29;27.20;90.90
13375;DHT22;6756;51.354;15.754;2022-08-19T08:08:49;27.30;74.70
13375;DHT22;6756;51.354;15.754;2022-08-19T08:13:08;27.50;71.40
13375;DHT22;6756;51.354;15.754;2022-08-19T08:17:09;27.40;43.00
13375;DHT22;6756;51.354;15.754;2022-08-19T08:21:10;27.50;25.30
13375;DHT22;6756;51.354;15.754;2022-08-19T08:25:16;27.40;18.40
13375;DHT22;6756;51.354;15.754;2022-08-19T08:29:17;27.10;26.70
13375;DHT22;6756;51.354;15.754;2022-08-19T08:33:22;27.40;17.90
13375;DHT22;6756;51.354;15.754;2022-08-19T08:37:23;27.50;13.00
13375;DHT22;6756;51.354;15.754;2022-08-19T08:41:50;27.40;38.10
13375;DHT22;6756;51.354;15.754;2022-08-19T08:46:13;27.70;13.70
13375;DHT22;6756;51.354;15.754;2022-08-19T08:50:21;27.50;10.50
13375;DHT22;6756;51.354;15.754;2022-08-19T08:54:26;27.30;37.10
13375;DHT22;6756;51.354;15.754;2022-08-19T08:58:36;27.60;16.00
13375;DHT22;6756;51.354;15.754;2022-08-19T09:02:43;27.50;19.90
13375;DHT22;6756;51.354;15.754;2022-08-19T09:11:08;27.60;19.80
13375;DHT22;6756;51.354;15.754;2022-08-19T09:15:12;27.40;9.50
13375;DHT22;6756;51.354;15.754;2022-08-19T09:19:14;27.40;12.80
13375;DHT22;6756;51.354;15.754;2022-08-19T09:23:16;27.60;16.70
13375;DHT22;6756;51.354;15.754;2022-08-19T09:27:17;27.90;1.00
13375;DHT22;6756;51.354;15.754;2022-08-19T09:31:21;27.60;1.00
13375;DHT22;6756;51.354;15.754;2022-08-19T09:35:24;27.40;3.70
13375;DHT22;6756;51.354;15.754;2022-08-19T09:39:25;27.30;12.80
13375;DHT22;6756;51.354;15.754;2022-08-19T09:43:26;27.30;17.10
13375;DHT22;6756;51.354;15.754;2022-08-19T09:47:28;27.30;1.00
13375;DHT22;6756;51.354;15.754;2022-08-19T09:51:29;27.30;2.50
13375;DHT22;6756;51.354;15.754;2022-08-19T09:55:30;27.10;1.00
13375;DHT22;6756;51.354;15.754;2022-08-19T09:59:30;27.30;4.30
13375;DHT22;6756;51.354;15.754;2022-08-19T10:03:36;27.60;1.00
13375;DHT22;6756;51.354;15.754;2022-08-19T10:07:37;27.80;1.00
13375;DHT22;6756;51.354;15.754;2022-08-19T10:11:43;28.10;1.00
13375;DHT22;6756;51.354;15.754;2022-08-19T10:15:46;28.60;1.00
13375;DHT22;6756;51.354;15.754;2022-08-19T10:19:50;28.90;1.00
13375;DHT22;6756;51.354;15.754;2022-08-19T10:23:55;28.60;1.00
13375;DHT22;6756;51.354;15.754;2022-08-19T10:27:57;28.80;1.00
13375;DHT22;6756;51.354;15.754;2022-08-19T10:31:59;29.10;1.00
13375;DHT22;6756;51.354;15.754;2022-08-19T10:36:06;29.10;1.00
13375;DHT22;6756;51.354;15.754;2022-08-19T10:40:08;28.60;1.00
13375;DHT22;6756;51.354;15.754;2022-08-19T10:44:12;28.60;1.00
13375;DHT22;6756;51.354;15.754;2022-08-19T10:48:13;28.50;1.00
13375;DHT22;6756;51.354;15.754;2022-08-19T10:52:14;28.40;1.00
13375;DHT22;6756;51.354;15.754;2022-08-19T10:56:41;28.10;1.00
13375;DHT22;6756;51.354;15.754;2022-08-19T11:00:57;27.90;1.00
13375;DHT22;6756;51.354;15.754;2022-08-19T11:04:58;27.70;1.00
13375;DHT22;6756;51.354;15.754;2022-08-19T11:08:59;27.50;7.90
13375;DHT22;6756;51.354;15.754;2022-08-19T11:13:00;27.20;25.50
13375;DHT22;6756;51.354;15.754;2022-08-19T11:17:03;27.50;27.10
13375;DHT22;6756;51.354;15.754;2022-08-19T11:21:11;27.90;5.50
13375;DHT22;6756;51.354;15.754;2022-08-19T11:25:12;28.00;1.00
13375;DHT22;6756;51.354;15.754;2022-08-19T11:29:13;27.80;1.00
13375;DHT22;6756;51.354;15.754;2022-08-19T11:33:14;27.40;10.50
13375;DHT22;6756;51.354;15.754;2022-08-19T11:37:15;27.30;22.30
13375;DHT22;6756;51.354;15.754;2022-08-19T11:41:18;27.40;44.30
13375;DHT22;6756;51.354;15.754;2022-08-19T11:45:19;27.70;9.10
13375;DHT22;6756;51.354;15.754;2022-08-19T11:49:20;28.10;10.30
13375;DHT22;6756;51.354;15.754;2022-08-19T11:53:21;28.40;1.00
13375;DHT22;6756;51.354;15.754;2022-08-19T11:57:22;28.00;1.00
13375;DHT22;6756;51.354;15.754;2022-08-19T12:01:25;28.40;1.00
13375;DHT22;6756;51.354;15.754;2022-08-19T12:05:26;28.90;1.00
13375;DHT22;6756;51.354;15.754;2022-08-19T12:09:27;28.70;1.00
13375;DHT22;6756;51.354;15.754;2022-08-19T12:13:31;28.80;1.00
13375;DHT22;6756;51.354;15.754;2022-08-19T12:17:32;29.00;1.00
13375;DHT22;6756;51.354;15.754;2022-08-19T12:21:34;29.00;1.00
13375;DHT22;6756;51.354;15.754;2022-08-19T12:25:42;28.80;1.00
13375;DHT22;6756;51.354;15.754;2022-08-19T12:29:50;29.00;1.00
13375;DHT22;6756;51.354;15.754;2022-08-19T12:33:51;29.40;1.00
13375;DHT22;6756;51.354;15.754;2022-08-19T12:37:52;29.70;1.00
13375;DHT22;6756;51.354;15.754;2022-08-19T12:41:53;30.20;1.00
13375;DHT22;6756;51.354;15.754;2022-08-19T12:45:54;29.70;1.00
13375;DHT22;6756;51.354;15.754;2022-08-19T12:49:55;29.90;1.00
13375;DHT22;6756;51.354;15.754;2022-08-19T12:53:57;30.00;1.00
13375;DHT22;6756;51.354;15.754;2022-08-19T12:57:57;29.60;1.00
13375;DHT22;6756;51.354;15.754;2022-08-19T13:01:58;29.40;1.00
13375;DHT22;6756;51.354;15.754;2022-08-19T13:05:59;29.80;1.00
13375;DHT22;6756;51.354;15.754;2022-08-19T13:10:00;29.70;1.00
13375;DHT22;6756;51.354;15.754;2022-08-19T13:14:05;29.30;1.00
13375;DHT22;6756;51.354;15.754;2022-08-19T13:18:07;29.60;1.00
13375;DHT22;6756;51.354;15.754;2022-08-19T13:22:09;29.60;1.00
13375;DHT22;6756;51.354;15.754;2022-08-19T13:26:11;29.00;1.00
13375;DHT22;6756;51.354;15.754;2022-08-19T13:30:14;28.50;1.00
13375;DHT22;6756;51.354;15.754;2022-08-19T13:34:34;28.30;1.00
13375;DHT22;6756;51.354;15.754;2022-08-19T13:38:35;28.30;1.00
13375;DHT22;6756;51.354;15.754;2022-08-19T13:42:42;28.50;1.00
13375;DHT22;6756;51.354;15.754;2022-08-19T13:46:43;28.30;1.00
13375;DHT22;6756;51.354;15.754;2022-08-19T13:50:45;28.10;1.00
13375;DHT22;6756;51.354;15.754;2022-08-19T13:54:47;28.30;1.00
13375;DHT22;6756;51.354;15.754;2022-08-19T13:58:48;28.60;1.00
13375;DHT22;6756;51.354;15.754;2022-08-19T14:02:52;28.90;1.00
13375;DHT22;6756;51.354;15.754;2022-08-19T14:06:53;28.60;1.00
13375;DHT22;6756;51.354;15.754;2022-08-19T14:10:57;28.60;1.00
13375;DHT22;6756;51.354;15.754;2022-08-19T14:14:58;28.80;1.00
13375;DHT22;6756;51.354;15.754;2022-08-19T14:18:59;28.50;1.00
13375;DHT22;6756;51.354;15.754;2022-08-19T14:23:00;27.70;1.00
13375;DHT22;6756;51.354;15.754;2022-08-19T14:27:01;27.30;1.00
13375;DHT22;6756;51.354;15.754;2022-08-19T14:31:03;27.20;5.80
13375;DHT22;6756;51.354;15.754;2022-08-19T14:35:05;27.20;23.80
13375;DHT22;6756;51.354;15.754;2022-08-19T14:39:08;27.10;27.30
13375;DHT22;6756;51.354;15.754;2022-08-19T14:43:10;27.10;22.30
13375;DHT22;6756;51.354;15.754;2022-08-19T14:47:10;26.90;27.90
13375;DHT22;6756;51.354;15.754;2022-08-19T14:51:11;26.90;33.00
13375;DHT22;6756;51.354;15.754;2022-08-19T14:55:17;27.10;22.70
13375;DHT22;6756;51.354;15.754;2022-08-19T14:59:20;27.30;14.60
13375;DHT22;6756;51.354;15.754;2022-08-19T15:03:24;27.40;2.90
13375;DHT22;6756;51.354;15.754;2022-08-19T15:07:29;27.70;4.60
13375;DHT22;6756;51.354;15.754;2022-08-19T15:11:30;27.90;1.00
13375;DHT22;6756;51.354;15.754;2022-08-19T15:15:32;28.10;1.00
13375;DHT22;6756;51.354;15.754;2022-08-19T15:19:33;28.00;1.00
13375;DHT22;6756;51.354;15.754;2022-08-19T15:23:36;28.00;1.00
13375;DHT22;6756;51.354;15.754;2022-08-19T15:27:37;28.10;1.00
13375;DHT22;6756;51.354;15.754;2022-08-19T15:31:39;27.90;1.00
13375;DHT22;6756;51.354;15.754;2022-08-19T15:35:43;27.80;1.00
13375;DHT22;6756;51.354;15.754;2022-08-19T15:39:44;27.50;1.00
13375;DHT22;6756;51.354;15.754;2022-08-19T15:43:47;27.20;1.00
13375;DHT22;6756;51.354;15.754;2022-08-19T15:47:48;27.10;7.20
13375;DHT22;6756;51.354;15.754;2022-08-19T15:51:52;27.20;13.80
13375;DHT22;6756;51.354;15.754;2022-08-19T15:55:53;27.60;1.00
13375;DHT22;6756;51.354;15.754;2022-08-19T15:59:54;27.70;1.00
13375;DHT22;6756;51.354;15.754;2022-08-19T16:04:14;27.70;1.00
13375;DHT22;6756;51.354;15.754;2022-08-19T16:08:33;27.60;1.00
13375;DHT22;6756;51.354;15.754;2022-08-19T16:12:37;27.30;5.70
13375;DHT22;6756;51.354;15.754;2022-08-19T16:16:38;27.10;12.10
13375;DHT22;6756;51.354;15.754;2022-08-19T16:20:39;26.70;36.90
13375;DHT22;6756;51.354;15.754;2022-08-19T16:24:40;26.40;53.80
13375;DHT22;6756;51.354;15.754;2022-08-19T16:28:42;26.20;90.90
13375;DHT22;6756;51.354;15.754;2022-08-19T16:32:43;26.00;95.70
13375;DHT22;6756;51.354;15.754;2022-08-19T16:36:44;25.80;99.90
13375;DHT22;6756;51.354;15.754;2022-08-19T16:40:45;25.70;99.90
13375;DHT22;6756;51.354;15.754;2022-08-19T16:44:46;25.70;99.90
13375;DHT22;6756;51.354;15.754;2022-08-19T16:48:49;25.70;99.90
13375;DHT22;6756;51.354;15.754;2022-08-19T16:52:50;25.60;99.90
13375;DHT22;6756;51.354;15.754;2022-08-19T16:56:51;25.60;99.90
13375;DHT22;6756;51.354;15.754;2022-08-19T17:00:53;25.50;99.90
13375;DHT22;6756;51.354;15.754;2022-08-19T17:04:54;25.40;99.90
13375;DHT22;6756;51.354;15.754;2022-08-19T17:09:00;25.20;99.90
13375;DHT22;6756;51.354;15.754;2022-08-19T17:13:01;25.20;99.90
13375;DHT22;6756;51.354;15.754;2022-08-19T17:17:02;25.20;99.90
13375;DHT22;6756;51.354;15.754;2022-08-19T17:21:03;25.10;99.90
13375;DHT22;6756;51.354;15.754;2022-08-19T17:25:04;25.00;99.90
13375;DHT22;6756;51.354;15.754;2022-08-19T17:29:05;25.00;99.90
13375;DHT22;6756;51.354;15.754;2022-08-19T17:33:06;24.80;99.90
13375;DHT22;6756;51.354;15.754;2022-08-19T17:37:07;24.70;99.90
13375;DHT22;6756;51.354;15.754;2022-08-19T17:41:08;24.70;99.90
13375;DHT22;6756;51.354;15.754;2022-08-19T17:45:10;24.50;99.90
13375;DHT22;6756;51.354;15.754;2022-08-19T17:49:11;24.50;99.90
13375;DHT22;6756;51.354;15.754;2022-08-19T17:53:12;24.30;99.90
13375;DHT22;6756;51.354;15.754;2022-08-19T17:57:13;24.30;99.90
13375;DHT22;6756;51.354;15.754;2022-08-19T18:01:14;24.10;99.90
13375;DHT22;6756;51.354;15.754;2022-08-19T18:05:17;24.00;99.90
13375;DHT22;6756;51.354;15.754;2022-08-19T18:09:18;23.90;99.90
13375;DHT22;6756;51.354;15.754;2022-08-19T18:13:20;23.80;1.00
13375;DHT22;6756;51.354;15.754;2022-08-19T18:17:21;23.70;1.00
13375;DHT22;6756;51.354;15.754;2022-08-19T18:21:22;23.70;1.00
13375;DHT22;6756;51.354;15.754;2022-08-19T18:25:30;23.60;1.00
13375;DHT22;6756;51.354;15.754;2022-08-19T18:29:31;23.60;1.00
13375;DHT22;6756;51.354;15.754;2022-08-19T18:33:33;23.60;1.00
13375;DHT22;6756;51.354;15.754;2022-08-19T18:37:34;23.60;1.00
13375;DHT22;6756;51.354;15.754;2022-08-19T18:41:35;23.50;1.00
13375;DHT22;6756;51.354;15.754;2022-08-19T18:45:54;23.40;1.00
13375;DHT22;6756;51.354;15.754;2022-08-19T18:50:13;23.30;1.00
13375;DHT22;6756;51.354;15.754;2022-08-19T18:54:15;23.30;16.70
13375;DHT22;6756;51.354;15.754;2022-08-19T18:58:17;23.20;60.10
13375;DHT22;6756;51.354;15.754;2022-08-19T19:02:18;23.20;99.90
13375;DHT22;6756;51.354;15.754;2022-08-19T19:06:29;23.10;99.90
13375;DHT22;6756;51.354;15.754;2022-08-19T19:10:32;23.00;99.90
13375;DHT22;6756;51.354;15.754;2022-08-19T19:14:37;22.90;99.90
13375;DHT22;6756;51.354;15.754;2022-08-19T19:18:38;22.90;99.90
13375;DHT22;6756;51.354;15.754;2022-08-19T19:22:39;22.80;99.90
13375;DHT22;6756;51.354;15.754;2022-08-19T19:26:42;22.70;99.90
13375;DHT22;6756;51.354;15.754;2022-08-19T19:30:45;22.70;1.00
13375;DHT22;6756;51.354;15.754;2022-08-19T19:34:49;22.60;1.00
13375;DHT22;6756;51.354;15.754;2022-08-19T19:38:50;22.50;1.00
13375;DHT22;6756;51.354;15.754;2022-08-19T19:42:52;22.40;1.00
13375;DHT22;6756;51.354;15.754;2022-08-19T19:46:53;22.40;29.30
13375;DHT22;6756;51.354;15.754;2022-08-19T19:50:58;22.30;97.40
13375;DHT22;6756;51.354;15.754;2022-08-19T19:54:59;22.20;99.90
13375;DHT22;6756;51.354;15.754;2022-08-19T19:59:00;22.10;99.90
13375;DHT22;6756;51.354;15.754;2022-08-19T20:03:03;22.10;99.90
13375;DHT22;6756;51.354;15.754;2022-08-19T20:07:05;22.10;99.90
13375;DHT22;6756;51.354;15.754;2022-08-19T20:11:06;22.10;99.90
13375;DHT22;6756;51.354;15.754;2022-08-19T20:15:07;22.00;99.90
13375;DHT22;6756;51.354;15.754;2022-08-19T20:19:10;22.00;99.90
13375;DHT22;6756;51.354;15.754;2022-08-19T20:23:11;21.90;99.90
13375;DHT22;6756;51.354;15.754;2022-08-19T20:27:12;21.80;99.90
13375;DHT22;6756;51.354;15.754;2022-08-19T20:31:13;21.80;1.00
13375;DHT22;6756;51.354;15.754;2022-08-19T20:35:17;21.70;1.00
13375;DHT22;6756;51.354;15.754;2022-08-19T20:39:19;21.60;61.20
13375;DHT22;6756;51.354;15.754;2022-08-19T20:43:19;21.50;99.90
13375;DHT22;6756;51.354;15.754;2022-08-19T20:47:21;21.40;99.90
13375;DHT22;6756;51.354;15.754;2022-08-19T20:51:27;21.30;1.00
13375;DHT22;6756;51.354;15.754;2022-08-19T20:55:29;21.20;99.90
13375;DHT22;6756;51.354;15.754;2022-08-19T20:59:30;21.20;99.90
13375;DHT22;6756;51.354;15.754;2022-08-19T21:03:33;21.20;99.90
13375;DHT22;6756;51.354;15.754;2022-08-19T21:07:34;21.20;99.90
13375;DHT22;6756;51.354;15.754;2022-08-19T21:11:35;21.20;1.00
13375;DHT22;6756;51.354;15.754;2022-08-19T21:15:37;21.10;1.00
13375;DHT22;6756;51.354;15.754;2022-08-19T21:19:40;21.10;94.80
13375;DHT22;6756;51.354;15.754;2022-08-19T21:23:41;21.10;99.90
13375;DHT22;6756;51.354;15.754;2022-08-19T21:27:42;21.00;99.90
13375;DHT22;6756;51.354;15.754;2022-08-19T21:31:43;21.00;1.00
13375;DHT22;6756;51.354;15.754;2022-08-19T21:35:44;21.00;99.90
13375;DHT22;6756;51.354;15.754;2022-08-19T21:39:45;20.90;15.40
13375;DHT22;6756;51.354;15.754;2022-08-19T21:43:46;20.90;99.90
13375;DHT22;6756;51.354;15.754;2022-08-19T21:47:47;20.90;99.90
13375;DHT22;6756;51.354;15.754;2022-08-19T21:51:49;20.90;99.90
13375;DHT22;6756;51.354;15.754;2022-08-19T21:55:50;21.00;1.00
13375;DHT22;6756;51.354;15.754;2022-08-19T21:59:51;21.00;99.90
13375;DHT22;6756;51.354;15.754;2022-08-19T22:03:52;20.90;22.80
13375;DHT22;6756;51.354;15.754;2022-08-19T22:07:55;20.90;1.00
13375;DHT22;6756;51.354;15.754;2022-08-19T22:11:59;20.90;1.00
13375;DHT22;6756;51.354;15.754;2022-08-19T22:16:04;20.90;1.00
13375;DHT22;6756;51.354;15.754;2022-08-19T22:20:08;20.90;99.90
13375;DHT22;6756;51.354;15.754;2022-08-19T22:24:10;20.90;99.90
13375;DHT22;6756;51.354;15.754;2022-08-19T22:28:12;20.90;1.00
13375;DHT22;6756;51.354;15.754;2022-08-19T22:32:16;20.80;99.90
13375;DHT22;6756;51.354;15.754;2022-08-19T22:36:17;20.80;99.90
13375;DHT22;6756;51.354;15.754;2022-08-19T22:40:18;20.70;39.90
13375;DHT22;6756;51.354;15.754;2022-08-19T22:44:19;20.70;1.00
13375;DHT22;6756;51.354;15.754;2022-08-19T22:48:23;20.70;1.00
13375;DHT22;6756;51.354;15.754;2022-08-19T22:52:24;20.60;1.00
13375;DHT22;6756;51.354;15.754;2022-08-19T22:56:25;20.60;1.00
13375;DHT22;6756;51.354;15.754;2022-08-19T23:00:27;20.60;99.90
13375;DHT22;6756;51.354;15.754;2022-08-19T23:04:28;20.60;99.90
13375;DHT22;6756;51.354;15.754;2022-08-19T23:08:29;20.50;1.00
13375;DHT22;6756;51.354;15.754;2022-08-19T23:12:37;20.50;61.60
13375;DHT22;6756;51.354;15.754;2022-08-19T23:16:38;20.50;99.90
13375;DHT22;6756;51.354;15.754;2022-08-19T23:20:41;20.50;99.90
13375;DHT22;6756;51.354;15.754;2022-08-19T23:24:42;20.50;1.00
13375;DHT22;6756;51.354;15.754;2022-08-19T23:28:43;20.50;99.90
13375;DHT22;6756;51.354;15.754;2022-08-19T23:37:15;20.30;1.00
13375;DHT22;6756;51.354;15.754;2022-08-19T23:41:18;20.30;62.80
13375;DHT22;6756;51.354;15.754;2022-08-19T23:45:21;20.20;10.80
13375;DHT22;6756;51.354;15.754;2022-08-19T23:49:23;20.20;1.00
13375;DHT22;6756;51.354;15.754;2022-08-19T23:53:25;20.20;38.30
13375;DHT22;6756;51.354;15.754;2022-08-19T23:57:27;20.20;24.20
